Time;durP1;ratioP1;P1;durP2;ratioP2;P2;SDS_P1;SDS_P2;PMS_P1;PMS_P2;Temp;Humidity;BMP_temperature;BMP_pressure;BME280_temperature;BME280_humidity;BME280_pressure;Samples;Min_cycle;Max_cycle;Signal;HPM_P1;HPM_P2
2023/08/23 00:02:46;;;;;;;12.93;5.45;;;;;;;26.57;45.19;101764.44;21084881;28;20101;-57
2023/08/23 00:12:49;;;;;;;12.25;5.82;;;;;;;26.56;45.16;101765.59;21084435;28;20056;-56
2023/08/23 00:22:53;;;;;;;8.02;5.35;;;;;;;26.60;44.81;101758.25;21083632;28;20052;-57
2023/08/23 00:32:57;;;;;;;10.15;5.55;;;;;;;26.69;45.04;101770.47;21078430;28;20106;-56
2023/08/23 00:42:59;;;;;;;7.05;5.70;;;;;;;26.74;45.14;101784.44;21000691;28;20377;-55
2023/08/23 00:53:02;;;;;;;11.82;5.70;;;;;;;26.77;44.93;101792.28;21047660;28;20035;-54
2023/08/23 01:03:04;;;;;;;6.68;5.60;;;;;;;26.78;45.12;101793.94;21080261;28;20449;-59
2023/08/23 01:13:15;;;;;;;4.93;4.43;;;;;;;26.84;45.13;101805.94;21080240;28;20483;-59
2023/08/23 01:23:18;;;;;;;6.32;4.80;;;;;;;26.79;45.02;101787.19;21079169;28;20051;-60
2023/08/23 01:33:30;;;;;;;6.70;5.32;;;;;;;26.90;45.03;101810.38;21072714;28;20391;-59
2023/08/23 01:43:31;;;;;;;5.75;4.40;;;;;;;26.94;45.18;101803.03;21067918;28;20058;-58
2023/08/23 01:53:33;;;;;;;5.13;4.43;;;;;;;26.98;45.28;101811.66;21050786;28;20036;-55
2023/08/23 02:03:34;;;;;;;6.88;4.28;;;;;;;27.07;45.16;101816.28;21075307;28;20373;-58
2023/08/23 02:13:35;;;;;;;6.60;4.57;;;;;;;27.07;45.21;101812.66;21066531;28;20060;-59
2023/08/23 02:23:37;;;;;;;6.00;4.43;;;;;;;27.17;45.48;101818.19;21078314;28;20036;-60
2023/08/23 02:33:38;;;;;;;6.63;3.95;;;;;;;27.32;45.08;101840.44;21101785;28;20051;-58
2023/08/23 02:43:42;;;;;;;5.88;4.15;;;;;;;27.35;45.40;101834.22;21099597;28;20089;-59
2023/08/23 02:53:43;;;;;;;6.47;4.18;;;;;;;27.32;45.57;101851.69;21100743;28;20044;-59
2023/08/23 03:03:45;;;;;;;7.28;3.83;;;;;;;27.30;45.91;101845.50;21099662;28;20451;-60
2023/08/23 03:13:46;;;;;;;6.13;3.47;;;;;;;27.34;45.77;101857.00;21096813;28;20043;-60
2023/08/23 03:23:48;;;;;;;9.13;4.10;;;;;;;27.35;45.99;101839.84;21088031;28;20032;-58
2023/08/23 03:33:49;;;;;;;8.27;3.55;;;;;;;27.39;46.13;101858.88;21074475;28;20453;-59
2023/08/23 03:43:50;;;;;;;9.23;4.20;;;;;;;27.38;46.08;101865.66;21082112;28;20048;-59
2023/08/23 03:53:51;;;;;;;6.03;3.53;;;;;;;27.41;46.26;101862.25;21084193;28;20040;-60
2023/08/23 04:03:53;;;;;;;7.18;3.70;;;;;;;27.43;46.20;101851.53;21084780;28;20495;-59
2023/08/23 04:13:54;;;;;;;7.10;4.13;;;;;;;27.41;46.33;101856.63;21084287;28;20176;-59
2023/08/23 04:23:56;;;;;;;5.70;3.30;;;;;;;27.47;46.19;101866.66;21082480;28;20246;-61
2023/08/23 04:33:57;;;;;;;8.02;3.72;;;;;;;27.46;46.34;101851.75;21082350;28;20039;-58
2023/08/23 04:43:59;;;;;;;9.52;3.97;;;;;;;27.43;46.36;101835.50;21082038;28;20073;-59
2023/08/23 04:54:03;;;;;;;4.07;3.10;;;;;;;27.48;46.39;101832.59;21059603;28;20865;-59
2023/08/23 05:04:07;;;;;;;5.03;3.28;;;;;;;27.52;46.58;101816.78;21068954;28;20044;-61
2023/08/23 05:14:08;;;;;;;5.38;3.28;;;;;;;27.52;46.53;101844.06;21045227;28;20536;-59
2023/08/23 05:24:10;;;;;;;4.35;3.15;;;;;;;27.54;46.69;101853.06;21078549;28;20403;-60
2023/08/23 05:34:11;;;;;;;5.22;3.25;;;;;;;27.53;46.74;101854.16;21078522;28;20036;-59
2023/08/23 05:44:15;;;;;;;3.13;2.75;;;;;;;27.55;46.66;101843.47;21050308;28;20078;-59
2023/08/23 05:54:16;;;;;;;4.65;2.90;;;;;;;27.54;46.77;101848.28;21076013;28;20404;-59
2023/08/23 06:04:18;;;;;;;4.07;3.33;;;;;;;27.55;46.96;101854.72;21063140;28;20052;-59
2023/08/23 06:14:21;;;;;;;4.07;2.95;;;;;;;27.58;46.98;101838.09;21074893;28;20372;-59
2023/08/23 06:24:23;;;;;;;3.45;2.97;;;;;;;27.60;46.91;101849.00;21074110;28;20117;-59
2023/08/23 06:34:24;;;;;;;3.88;2.92;;;;;;;27.59;47.16;101862.25;21071721;28;20138;-59
2023/08/23 06:44:26;;;;;;;3.92;2.85;;;;;;;27.54;47.20;101836.19;21074751;28;20093;-58
2023/08/23 06:54:27;;;;;;;3.53;2.67;;;;;;;27.57;47.24;101833.59;21074845;28;20105;-59
2023/08/23 07:04:28;;;;;;;3.55;2.60;;;;;;;27.63;47.04;101839.97;21067584;28;20055;-60
2023/08/23 07:14:30;;;;;;;5.75;3.13;;;;;;;27.65;47.34;101843.31;21060567;28;20044;-59
2023/08/23 07:24:31;;;;;;;3.08;2.17;;;;;;;27.66;47.23;101844.16;21079797;28;20500;-59
2023/08/23 07:34:33;;;;;;;3.78;2.75;;;;;;;27.65;47.30;101823.63;21024260;28;20044;-60
2023/08/23 07:44:37;;;;;;;2.78;2.42;;;;;;;27.69;47.20;101830.31;21017084;28;20048;-59
2023/08/23 07:54:39;;;;;;;3.97;2.83;;;;;;;27.67;47.55;101828.94;21033896;28;20044;-61
2023/08/23 08:04:43;;;;;;;3.38;2.55;;;;;;;27.64;47.59;101807.91;21021151;28;20044;-60
2023/08/23 08:14:44;;;;;;;5.68;2.80;;;;;;;27.69;47.66;101838.75;21006511;28;20086;-59
2023/08/23 08:24:45;;;;;;;2.35;2.15;;;;;;;27.67;47.64;101846.63;21083474;28;20044;-60
2023/08/23 08:34:47;;;;;;;3.72;2.53;;;;;;;27.70;47.52;101843.22;21080312;28;20532;-58
2023/08/23 08:44:49;;;;;;;2.50;2.17;;;;;;;27.69;47.73;101844.38;21026914;28;20040;-59
2023/08/23 08:54:53;;;;;;;2.33;2.13;;;;;;;27.65;47.63;101842.47;21079989;28;20411;-59
2023/08/23 09:04:55;;;;;;;2.85;2.35;;;;;;;27.67;47.88;101832.56;21075034;28;20044;-59
2023/08/23 09:15:05;;;;;;;2.65;2.30;;;;;;;27.69;47.62;101872.50;21079992;28;20110;-59
2023/08/23 09:25:08;;;;;;;2.75;2.47;;;;;;;27.72;47.72;101888.81;21078682;28;20458;-60
2023/08/23 09:35:13;;;;;;;2.67;2.22;;;;;;;27.70;47.86;101919.16;21056560;28;20105;-59
2023/08/23 09:45:20;;;;;;;2.55;2.33;;;;;;;27.71;47.73;101903.94;21077922;28;20040;-60
2023/08/23 09:55:24;;;;;;;2.67;2.08;;;;;;;27.68;47.81;101921.44;21053278;28;20098;-59
2023/08/23 10:05:26;;;;;;;2.90;2.60;;;;;;;27.70;47.71;101936.03;21060360;28;20044;-59
2023/08/23 10:15:37;;;;;;;2.35;2.08;;;;;;;27.58;47.83;101955.31;21071769;28;20101;-58
2023/08/23 10:25:41;;;;;;;2.38;2.15;;;;;;;27.70;48.00;101963.31;21076118;28;20062;-59
2023/08/23 10:35:44;;;;;;;2.40;2.17;;;;;;;27.72;47.89;101992.84;21079336;28;20544;-58
2023/08/23 10:46:03;;;;;;;2.22;2.03;;;;;;;27.67;48.09;101963.91;21091711;28;20044;-59
2023/08/23 10:56:05;;;;;;;2.78;1.90;;;;;;;27.70;47.81;102003.50;21090917;28;20040;-58
2023/08/23 11:06:06;;;;;;;2.60;2.40;;;;;;;27.13;45.27;102025.03;21089719;28;20098;-60
2023/08/23 11:16:08;;;;;;;2.90;2.60;;;;;;;26.72;44.89;102028.22;21073263;28;20098;-60
2023/08/23 11:26:09;;;;;;;2.70;2.47;;;;;;;26.32;43.89;102027.38;21088167;28;20085;-59
2023/08/23 11:36:10;;;;;;;2.97;2.65;;;;;;;26.19;43.74;102018.78;21031664;28;20438;-58
2023/08/23 11:46:12;;;;;;;2.75;2.42;;;;;;;26.05;44.12;102025.03;21078088;28;20105;-60
2023/08/23 11:56:14;;;;;;;2.90;2.60;;;;;;;25.87;43.70;102033.28;21085597;28;20028;-58
2023/08/23 12:06:15;;;;;;;2.90;2.40;;;;;;;25.67;43.58;102007.00;21081471;28;20029;-58
2023/08/23 12:16:19;;;;;;;2.85;2.65;;;;;;;25.62;44.40;102037.03;21084223;28;20048;-58
2023/08/23 12:26:24;;;;;;;3.15;2.85;;;;;;;25.49;44.16;102032.88;21080323;28;20044;-59
2023/08/23 12:36:28;;;;;;;2.97;2.67;;;;;;;25.41;44.11;102019.44;21083693;28;20051;-59
2023/08/23 12:46:30;;;;;;;5.13;3.25;;;;;;;25.58;50.04;102003.13;21079682;28;20368;-59
2023/08/23 12:56:31;;;;;;;3.33;2.97;;;;;;;25.90;50.51;102013.91;21081388;28;20396;-60
2023/08/23 13:06:32;;;;;;;3.70;2.50;;;;;;;26.16;49.96;101996.91;21080133;28;20048;-59
2023/08/23 13:16:34;;;;;;;3.47;3.00;;;;;;;26.27;49.65;102002.16;21080257;28;20479;-58
2023/08/23 13:26:35;;;;;;;3.03;2.45;;;;;;;26.43;49.49;102014.13;21078934;28;20039;-59
2023/08/23 13:36:41;;;;;;;2.72;2.53;;;;;;;26.50;49.45;102025.03;21078260;28;20040;-58
2023/08/23 13:46:42;;;;;;;3.05;2.35;;;;;;;26.50;49.31;102011.81;21075352;28;20168;-59
2023/08/23 13:56:43;;;;;;;4.35;2.58;;;;;;;26.68;49.24;102021.50;21072977;28;20039;-58
2023/08/23 14:06:45;;;;;;;3.63;2.45;;;;;;;26.71;49.16;102015.31;21076401;28;20035;-60
2023/08/23 14:16:46;;;;;;;6.80;2.83;;;;;;;26.74;49.04;102003.47;21052322;28;20032;-59
2023/08/23 14:26:50;;;;;;;3.47;2.70;;;;;;;26.82;48.60;102011.25;20991274;28;20467;-59
2023/08/23 14:36:52;;;;;;;4.80;2.60;;;;;;;26.89;48.58;101994.03;21065953;28;20033;-60
2023/08/23 14:46:53;;;;;;;3.85;2.75;;;;;;;26.96;48.50;101993.72;21074398;28;20052;-59
2023/08/23 14:56:57;;;;;;;4.95;2.72;;;;;;;26.97;48.34;101989.75;21074311;28;20044;-59
2023/08/23 15:06:59;;;;;;;4.68;2.50;;;;;;;27.03;48.29;101994.19;21048413;28;20549;-59
2023/08/23 15:17:03;;;;;;;3.25;2.22;;;;;;;26.97;48.14;101964.47;21062947;28;20056;-58
2023/08/23 15:27:05;;;;;;;3.10;2.38;;;;;;;27.08;48.26;101957.63;21083091;28;20040;-58
2023/08/23 15:37:06;;;;;;;3.08;2.33;;;;;;;27.11;48.04;101951.44;21086950;28;20048;-58
2023/08/23 15:47:07;;;;;;;3.80;2.70;;;;;;;27.16;47.79;101942.09;21072836;28;20039;-59
2023/08/23 15:57:12;;;;;;;3.03;2.30;;;;;;;27.18;47.62;101935.06;21070692;28;20540;-59
2023/08/23 16:07:13;;;;;;;2.70;2.42;;;;;;;27.29;47.39;101914.09;21054067;28;20098;-57
2023/08/23 16:17:14;;;;;;;3.40;2.53;;;;;;;27.34;47.03;101885.94;21081620;28;20400;-60
2023/08/23 16:27:16;;;;;;;6.30;2.90;;;;;;;27.36;46.76;101869.63;21078653;28;20477;-59
2023/08/23 16:37:17;;;;;;;3.90;2.47;;;;;;;27.29;46.20;101829.78;21065391;28;20036;-58
2023/08/23 16:47:18;;;;;;;2.92;2.50;;;;;;;27.43;46.06;101846.72;21077075;28;20069;-58
2023/08/23 16:57:23;;;;;;;2.83;2.53;;;;;;;27.47;45.91;101849.78;21067676;28;20437;-59
2023/08/23 17:07:24;;;;;;;3.50;2.42;;;;;;;27.15;44.26;101850.53;21076715;28;20040;-60
2023/08/23 17:17:26;;;;;;;4.50;2.90;;;;;;;26.64;44.18;101857.59;21035425;28;20032;-57
2023/08/23 17:27:30;;;;;;;3.53;2.85;;;;;;;26.36;44.21;101862.91;21064535;28;20487;-58
2023/08/23 17:37:32;;;;;;;7.07;3.00;;;;;;;26.18;44.01;101872.06;21029559;28;20040;-60
2023/08/23 17:47:33;;;;;;;5.13;2.83;;;;;;;26.01;44.09;101849.19;21062265;28;20483;-60
2023/08/23 17:57:38;;;;;;;5.15;2.78;;;;;;;25.83;44.04;101836.72;21073491;28;20391;-58
2023/08/23 18:07:39;;;;;;;4.85;3.10;;;;;;;25.80;43.54;101832.56;21067215;28;20399;-59
2023/08/23 18:17:40;;;;;;;4.53;3.17;;;;;;;25.76;47.11;101811.84;21069917;28;20052;-58
2023/08/23 18:27:42;;;;;;;5.65;2.80;;;;;;;26.10;48.82;101813.78;21075295;28;20479;-60
2023/08/23 18:37:46;;;;;;;5.35;3.25;;;;;;;26.42;48.29;101792.69;21075379;28;20036;-58
2023/08/23 18:47:48;;;;;;;5.55;2.80;;;;;;;26.58;47.75;101780.19;21038580;28;20106;-59
2023/08/23 18:57:51;;;;;;;4.97;2.83;;;;;;;26.76;47.56;101790.63;21065733;28;20137;-58
2023/08/23 19:07:52;;;;;;;4.22;3.10;;;;;;;26.91;47.03;101794.34;21087603;28;20040;-59
2023/08/23 19:17:53;;;;;;;4.60;2.83;;;;;;;26.93;46.79;101786.44;21088591;28;20032;-59
2023/08/23 19:27:56;;;;;;;4.22;2.65;;;;;;;27.01;46.47;101799.84;21072045;28;20064;-58
2023/08/23 19:37:57;;;;;;;3.80;2.83;;;;;;;27.04;46.67;101793.63;21052809;28;20184;-59
2023/08/23 19:48:01;;;;;;;4.65;2.95;;;;;;;27.08;46.60;101777.84;21086677;28;20101;-58
2023/08/23 19:58:04;;;;;;;3.45;2.80;;;;;;;27.07;46.52;101776.13;21071893;28;20040;-59
2023/08/23 20:08:05;;;;;;;4.15;3.15;;;;;;;27.19;46.16;101784.16;21066775;28;20044;-59
2023/08/23 20:18:07;;;;;;;3.83;2.80;;;;;;;27.22;46.20;101761.09;21064116;28;20078;-56
2023/08/23 20:28:08;;;;;;;4.85;3.28;;;;;;;27.23;46.33;101752.34;21066396;28;20045;-57
2023/08/23 20:38:09;;;;;;;3.67;2.60;;;;;;;27.22;46.64;101739.44;21065899;28;20043;-59
2023/08/23 20:48:11;;;;;;;3.65;3.17;;;;;;;27.28;46.78;101715.72;21069740;28;20054;-58
2023/08/23 20:58:12;;;;;;;4.88;2.95;;;;;;;27.20;46.70;101674.25;21068479;28;20395;-58
2023/08/23 21:08:13;;;;;;;4.97;2.72;;;;;;;27.35;46.72;101687.22;21057728;28;20066;-59
2023/08/23 21:18:15;;;;;;;4.47;3.20;;;;;;;27.36;46.98;101672.88;21054130;28;20045;-60
2023/08/23 21:28:19;;;;;;;5.65;2.88;;;;;;;27.43;46.66;101669.66;21055382;28;20066;-59
2023/08/23 21:38:24;;;;;;;5.18;3.00;;;;;;;27.34;46.99;101607.69;21053313;28;20399;-59
2023/08/23 21:48:25;;;;;;;4.57;3.13;;;;;;;27.34;45.48;101630.19;21064149;28;20044;-59
2023/08/23 21:58:28;;;;;;;4.25;3.00;;;;;;;26.70;45.33;101628.97;21068759;28;20036;-58
2023/08/23 22:08:32;;;;;;;5.70;3.72;;;;;;;26.43;45.51;101604.38;21059418;28;20051;-58
2023/08/23 22:18:34;;;;;;;6.18;3.33;;;;;;;26.19;45.07;101600.78;21061126;28;20101;-58
2023/08/23 22:28:36;;;;;;;6.00;3.65;;;;;;;25.98;45.09;101619.81;21046854;28;20557;-59
2023/08/23 22:38:42;;;;;;;7.25;4.18;;;;;;;26.05;48.80;101620.31;21069413;28;20509;-60
2023/08/23 22:48:44;;;;;;;9.60;3.80;;;;;;;26.24;50.12;101595.91;21086915;28;20074;-60
2023/08/23 22:58:45;;;;;;;7.05;4.20;;;;;;;26.53;49.42;101603.41;21081652;28;20441;-59
2023/08/23 23:08:46;;;;;;;9.23;4.55;;;;;;;26.71;48.80;101605.38;21079560;28;20040;-59
2023/08/23 23:18:48;;;;;;;6.72;3.92;;;;;;;26.81;48.62;101622.06;21056329;28;20417;-59
2023/08/23 23:28:49;;;;;;;6.63;3.97;;;;;;;26.92;48.19;101638.75;21054332;28;20044;-59
2023/08/23 23:38:50;;;;;;;6.47;4.43;;;;;;;26.97;48.16;101635.84;21003510;28;20345;-60
2023/08/23 23:48:52;;;;;;;6.28;4.55;;;;;;;27.04;47.72;101651.19;21001212;28;20040;-60
2023/08/23 23:58:53;;;;;;;7.72;4.03;;;;;;;27.07;47.77;101653.38;21002334;28;20032;-58
